createdAt,value
2022-11-06T00:01:11.088Z,56.04
2022-11-06T00:03:38.262Z,56.04
2022-11-06T00:06:26.835Z,55.69
2022-11-06T00:08:54.010Z,56.06
2022-11-06T00:11:20.782Z,55.79
2022-11-06T00:13:48.057Z,55.63
2022-11-06T00:16:14.898Z,56.13
2022-11-06T00:18:41.962Z,55.89
2022-11-06T00:21:10.050Z,56.13
2022-11-06T00:23:37.261Z,56.02
2022-11-06T00:26:08.450Z,56.04
2022-11-06T00:28:35.599Z,55.99
2022-11-06T00:31:10.972Z,56.01
2022-11-06T00:33:38.177Z,56.01
2022-11-06T00:36:06.146Z,55.88
2022-11-06T00:38:33.322Z,55.99
2022-11-06T00:41:07.613Z,56.35
2022-11-06T00:43:35.799Z,56.14
2022-11-06T00:46:08.223Z,56.24
2022-11-06T00:48:35.653Z,56.17
2022-11-06T00:51:31.674Z,56.04
2022-11-06T00:54:00.572Z,56.18
2022-11-06T00:56:27.430Z,56.01
2022-11-06T00:58:54.796Z,55.93
2022-11-06T01:01:26.355Z,55.98
2022-11-06T01:03:55.893Z,55.90
2022-11-06T01:06:24.330Z,56.20
2022-11-06T01:08:51.618Z,56.02
2022-11-06T01:11:22.509Z,56.04
2022-11-06T01:13:51.051Z,56.34
2022-11-06T01:16:17.897Z,56.32
2022-11-06T01:18:45.361Z,55.88
2022-11-06T01:21:17.560Z,56.16
2022-11-06T01:23:44.607Z,56.01
2022-11-06T01:26:12.152Z,55.96
2022-11-06T01:28:39.461Z,56.11
2022-11-06T01:31:14.246Z,55.96
2022-11-06T01:33:41.274Z,56.05
2022-11-06T01:36:12.214Z,56.16
2022-11-06T01:38:43.000Z,55.97
2022-11-06T01:41:12.228Z,56.43
2022-11-06T01:44:14.397Z,55.96
2022-11-06T01:46:41.144Z,55.97
2022-11-06T01:49:09.301Z,55.89
2022-11-06T01:51:56.562Z,56.00
2022-11-06T01:54:24.559Z,56.05
2022-11-06T01:56:52.134Z,55.88
2022-11-06T01:59:20.546Z,55.99
2022-11-06T02:01:47.444Z,56.08
2022-11-06T02:04:20.262Z,55.89
2022-11-06T02:06:47.147Z,55.88
2022-11-06T02:09:14.664Z,55.98
2022-11-06T02:11:45.958Z,55.90
2022-11-06T02:14:22.182Z,55.93
2022-11-06T02:17:16.202Z,55.77
2022-11-06T02:19:54.433Z,55.89
2022-11-06T02:23:03.626Z,56.04
2022-11-06T02:25:55.847Z,56.00
2022-11-06T02:28:34.837Z,56.02
2022-11-06T02:31:04.457Z,55.80
2022-11-06T02:33:36.296Z,55.93
2022-11-06T02:36:06.155Z,55.94
2022-11-06T02:38:41.518Z,55.95
2022-11-06T02:41:13.801Z,56.02
2022-11-06T02:43:43.458Z,56.14
2022-11-06T02:46:14.442Z,56.02
2022-11-06T02:48:47.573Z,55.89
2022-11-06T02:51:16.606Z,55.80
2022-11-06T02:53:43.960Z,55.94
2022-11-06T02:56:12.721Z,55.60
2022-11-06T02:58:50.160Z,55.85
2022-11-06T03:01:24.888Z,55.75
2022-11-06T03:03:54.663Z,55.76
2022-11-06T03:06:58.179Z,56.02
2022-11-06T03:09:28.500Z,55.66
2022-11-06T03:12:08.908Z,56.13
2022-11-06T03:14:39.329Z,56.04
2022-11-06T03:17:15.888Z,55.95
2022-11-06T03:19:52.155Z,55.74
2022-11-06T03:22:19.751Z,55.90
2022-11-06T03:24:50.648Z,55.99
2022-11-06T03:27:24.922Z,55.87
2022-11-06T03:29:59.376Z,55.90
2022-11-06T03:32:49.528Z,56.04
2022-11-06T03:35:22.868Z,55.97
2022-11-06T03:38:01.159Z,55.92
2022-11-06T03:40:31.479Z,55.94
2022-11-06T03:42:59.680Z,55.70
2022-11-06T03:45:26.731Z,55.87
2022-11-06T03:48:00.788Z,56.06
2022-11-06T03:50:33.354Z,55.96
2022-11-06T03:53:05.119Z,55.96
2022-11-06T03:55:34.804Z,55.97
2022-11-06T03:58:06.903Z,55.93
2022-11-06T04:00:34.770Z,56.08
2022-11-06T04:03:05.207Z,56.21
2022-11-06T04:05:41.729Z,56.00
2022-11-06T04:08:27.237Z,55.97
2022-11-06T04:11:13.998Z,55.96
2022-11-06T04:14:00.900Z,55.79
2022-11-06T04:16:34.145Z,55.92
2022-11-06T04:19:01.049Z,55.97
2022-11-06T04:22:02.271Z,56.19
2022-11-06T04:25:12.628Z,56.10
2022-11-06T04:28:00.576Z,56.26
2022-11-06T04:30:27.396Z,56.15
2022-11-06T04:33:00.677Z,56.07
2022-11-06T04:35:48.914Z,55.99
2022-11-06T04:38:49.310Z,56.19
2022-11-06T04:41:34.624Z,56.32
2022-11-06T04:44:09.202Z,56.17
2022-11-06T04:47:00.959Z,56.16
2022-11-06T04:49:29.704Z,56.07
2022-11-06T04:51:56.399Z,56.11
2022-11-06T04:54:23.445Z,56.00
2022-11-06T04:56:50.132Z,56.10
2022-11-06T04:59:17.757Z,56.22
2022-11-06T05:01:45.791Z,56.14
2022-11-06T05:04:12.999Z,56.08
2022-11-06T05:06:39.745Z,56.23
2022-11-06T05:09:06.796Z,56.13
2022-11-06T05:11:33.521Z,56.11
2022-11-06T05:14:00.520Z,56.21
2022-11-06T05:16:27.261Z,56.13
2022-11-06T05:18:54.281Z,56.20
2022-11-06T05:21:39.705Z,56.06
2022-11-06T05:24:06.833Z,56.36
2022-11-06T05:26:33.534Z,56.08
2022-11-06T05:29:00.563Z,56.01
2022-11-06T05:31:27.910Z,56.40
2022-11-06T05:33:54.991Z,56.42
2022-11-06T05:36:21.711Z,56.53
2022-11-06T05:38:48.720Z,56.30
2022-11-06T05:41:15.556Z,56.33
2022-11-06T05:43:42.715Z,56.30
2022-11-06T05:46:29.763Z,56.41
2022-11-06T05:48:56.584Z,56.26
2022-11-06T05:51:23.339Z,56.40
2022-11-06T05:53:50.350Z,56.38
2022-11-06T05:56:17.035Z,56.36
2022-11-06T05:58:44.104Z,56.44
2022-11-06T06:01:10.898Z,56.29
2022-11-06T06:03:37.906Z,55.98
2022-11-06T06:06:04.793Z,56.44
2022-11-06T06:08:31.824Z,56.25
2022-11-06T06:10:58.565Z,56.17
2022-11-06T06:13:25.558Z,56.41
2022-11-06T06:15:52.265Z,56.57
2022-11-06T06:18:19.300Z,56.30
2022-11-06T06:20:46.064Z,56.20
2022-11-06T06:23:13.082Z,56.27
2022-11-06T06:25:39.783Z,56.42
2022-11-06T06:28:07.287Z,56.29
2022-11-06T06:30:35.838Z,56.35
2022-11-06T06:33:06.106Z,56.27
2022-11-06T06:35:33.068Z,56.29
2022-11-06T06:38:00.222Z,56.39
2022-11-06T06:40:26.990Z,56.28
2022-11-06T06:42:57.684Z,56.34
2022-11-06T06:45:26.015Z,56.29
2022-11-06T06:47:53.097Z,56.59
2022-11-06T06:50:19.881Z,56.34
2022-11-06T06:52:47.501Z,56.13
2022-11-06T06:55:14.364Z,56.27
2022-11-06T06:57:41.425Z,56.23
2022-11-06T07:00:08.613Z,56.15
2022-11-06T07:02:35.590Z,56.04
2022-11-06T07:05:02.382Z,56.39
2022-11-06T07:07:29.426Z,56.41
2022-11-06T07:09:56.195Z,56.06
2022-11-06T07:12:23.206Z,56.36
2022-11-06T07:14:49.917Z,56.40
2022-11-06T07:17:16.953Z,56.27
2022-11-06T07:19:43.787Z,56.29
2022-11-06T07:22:10.797Z,55.74
2022-11-06T07:24:37.501Z,56.23
2022-11-06T07:27:04.814Z,56.21
2022-11-06T07:29:31.546Z,56.13
2022-11-06T07:31:58.640Z,56.18
2022-11-06T07:34:25.449Z,56.31
2022-11-06T07:36:52.534Z,56.29
2022-11-06T07:39:19.264Z,56.26
2022-11-06T07:41:46.308Z,56.25
2022-11-06T07:44:13.126Z,56.17
2022-11-06T07:46:40.134Z,56.29
2022-11-06T07:49:06.829Z,56.30
2022-11-06T07:51:33.835Z,56.22
2022-11-06T07:54:00.495Z,56.16
2022-11-06T07:56:27.557Z,56.06
2022-11-06T07:58:54.357Z,56.29
2022-11-06T08:01:21.563Z,56.06
2022-11-06T08:03:48.374Z,56.52
2022-11-06T08:06:15.427Z,56.09
2022-11-06T08:08:42.106Z,56.26
2022-11-06T08:11:10.350Z,56.00
2022-11-06T08:13:37.347Z,55.96
2022-11-06T08:16:14.321Z,56.28
2022-11-06T08:18:41.226Z,55.98
2022-11-06T08:21:08.254Z,56.20
2022-11-06T08:23:35.462Z,56.15
2022-11-06T08:26:03.382Z,56.08
2022-11-06T08:28:30.063Z,56.15
2022-11-06T08:30:57.066Z,56.42
2022-11-06T08:33:24.330Z,56.19
2022-11-06T08:35:51.539Z,56.22
2022-11-06T08:38:19.159Z,56.13
2022-11-06T08:40:52.375Z,56.19
2022-11-06T08:43:20.298Z,56.45
2022-11-06T08:45:47.330Z,56.26
2022-11-06T08:48:14.035Z,56.15
2022-11-06T08:50:41.699Z,56.26
2022-11-06T08:53:08.516Z,56.30
2022-11-06T08:55:37.845Z,56.22
2022-11-06T08:58:04.963Z,56.23
2022-11-06T09:00:32.012Z,56.27
2022-11-06T09:03:03.090Z,56.36
2022-11-06T09:05:30.984Z,56.28
2022-11-06T09:07:58.282Z,56.17
2022-11-06T09:10:25.631Z,56.24
2022-11-06T09:12:52.640Z,56.18
2022-11-06T09:15:22.929Z,56.28
2022-11-06T09:17:50.709Z,56.31
2022-11-06T09:20:21.710Z,56.14
2022-11-06T09:22:48.539Z,55.95
2022-11-06T09:25:15.751Z,56.02
2022-11-06T09:27:46.739Z,56.10
2022-11-06T09:30:15.092Z,56.04
2022-11-06T09:32:49.442Z,55.85
2022-11-06T09:35:16.701Z,56.01
2022-11-06T09:37:43.460Z,55.84
2022-11-06T09:40:33.348Z,55.82
2022-11-06T09:43:50.215Z,56.05
2022-11-06T09:46:25.073Z,55.95
2022-11-06T09:48:55.911Z,55.78
2022-11-06T09:51:46.124Z,55.62
2022-11-06T09:54:16.439Z,55.71
2022-11-06T09:56:43.691Z,55.39
2022-11-06T09:59:17.774Z,55.73
2022-11-06T10:01:49.858Z,55.51
2022-11-06T10:04:47.570Z,55.62
2022-11-06T10:07:23.884Z,55.59
2022-11-06T10:09:50.655Z,55.45
2022-11-06T10:12:24.670Z,55.46
2022-11-06T10:15:17.520Z,55.37
2022-11-06T10:18:09.214Z,55.33
2022-11-06T10:20:54.701Z,55.28
2022-11-06T10:23:25.559Z,55.33
2022-11-06T10:25:58.388Z,55.55
2022-11-06T10:28:48.597Z,55.19
2022-11-06T10:31:36.687Z,55.15
2022-11-06T10:34:13.148Z,55.22
2022-11-06T10:36:50.258Z,54.78
2022-11-06T10:39:20.102Z,55.16
2022-11-06T10:41:51.699Z,54.94
2022-11-06T10:44:30.983Z,54.88
2022-11-06T10:47:14.351Z,54.80
2022-11-06T10:49:53.135Z,54.71
2022-11-06T10:52:34.986Z,54.77
2022-11-06T10:55:30.858Z,54.74
2022-11-06T10:58:26.859Z,54.65
2022-11-06T11:00:55.179Z,54.42
2022-11-06T11:03:44.236Z,54.64
2022-11-06T11:06:11.361Z,54.63
2022-11-06T11:08:50.963Z,54.62
2022-11-06T11:11:25.585Z,54.61
2022-11-06T11:14:01.537Z,54.67
2022-11-06T11:16:30.057Z,54.40
2022-11-06T11:18:56.917Z,54.26
2022-11-06T11:21:25.820Z,54.35
2022-11-06T11:24:12.925Z,54.52
2022-11-06T11:26:44.349Z,54.38
2022-11-06T11:29:16.906Z,54.44
2022-11-06T11:31:50.521Z,54.79
2022-11-06T11:34:20.152Z,54.53
2022-11-06T11:37:04.270Z,54.54
2022-11-06T11:39:34.656Z,54.52
2022-11-06T11:42:16.961Z,54.60
2022-11-06T11:44:43.841Z,54.52
2022-11-06T11:47:24.211Z,54.35
2022-11-06T11:49:50.933Z,54.57
2022-11-06T11:52:19.647Z,54.42
2022-11-06T11:54:48.277Z,54.33
2022-11-06T11:57:22.776Z,54.19
2022-11-06T11:59:52.810Z,54.40
2022-11-06T12:02:26.939Z,54.43
2022-11-06T12:04:57.831Z,54.29
2022-11-06T12:07:32.841Z,54.36
2022-11-06T12:09:59.920Z,54.14
2022-11-06T12:12:31.318Z,54.11
2022-11-06T12:15:04.427Z,54.35
2022-11-06T12:17:33.433Z,54.13
2022-11-06T12:20:00.214Z,54.20
2022-11-06T12:22:39.456Z,53.39
2022-11-06T12:25:10.220Z,53.74
2022-11-06T12:27:38.532Z,53.41
2022-11-06T12:30:15.646Z,53.70
2022-11-06T12:32:53.280Z,53.84
2022-11-06T12:35:34.640Z,54.11
2022-11-06T12:38:39.273Z,53.82
2022-11-06T12:41:51.043Z,54.23
2022-11-06T12:44:18.198Z,54.13
2022-11-06T12:46:48.396Z,53.94
2022-11-06T12:49:50.709Z,53.68
2022-11-06T12:52:29.739Z,53.95
2022-11-06T12:54:59.752Z,54.16
2022-11-06T12:57:57.662Z,54.05
2022-11-06T13:00:31.285Z,53.96
2022-11-06T13:03:29.092Z,54.16
2022-11-06T13:06:13.418Z,54.12
2022-11-06T13:09:09.800Z,54.41
2022-11-06T13:11:51.803Z,54.24
2022-11-06T13:14:26.323Z,54.49
2022-11-06T13:17:04.253Z,54.90
2022-11-06T13:19:39.484Z,54.68
2022-11-06T13:22:12.475Z,55.00
2022-11-06T13:24:56.898Z,55.06
2022-11-06T13:27:36.148Z,54.74
2022-11-06T13:30:25.065Z,54.79
2022-11-06T13:33:10.652Z,54.86
2022-11-06T13:35:39.241Z,54.72
2022-11-06T13:38:17.183Z,54.59
2022-11-06T13:40:45.191Z,54.76
2022-11-06T13:43:17.145Z,54.88
2022-11-06T13:46:05.065Z,54.82
2022-11-06T13:48:38.399Z,54.88
2022-11-06T13:51:14.416Z,54.93
2022-11-06T13:54:13.777Z,54.81
2022-11-06T13:56:53.738Z,54.85
2022-11-06T13:59:34.337Z,55.01
2022-11-06T14:02:29.546Z,55.10
2022-11-06T14:05:18.188Z,54.82
2022-11-06T14:07:46.236Z,54.73
2022-11-06T14:10:21.117Z,54.72
2022-11-06T14:12:48.062Z,54.80
2022-11-06T14:15:20.117Z,54.88
2022-11-06T14:18:00.290Z,54.96
2022-11-06T14:20:32.998Z,55.28
2022-11-06T14:23:29.370Z,55.04
2022-11-06T14:26:03.924Z,54.94
2022-11-06T14:28:34.622Z,55.26
2022-11-06T14:31:22.685Z,55.25
2022-11-06T14:33:49.458Z,54.91
2022-11-06T14:36:36.839Z,55.29
2022-11-06T14:39:04.083Z,55.13
2022-11-06T14:41:34.138Z,55.31
2022-11-06T14:44:05.822Z,55.04
2022-11-06T14:46:33.020Z,55.02
2022-11-06T14:49:11.956Z,55.40
2022-11-06T14:51:38.972Z,55.43
2022-11-06T14:54:18.326Z,55.39
2022-11-06T14:56:51.786Z,55.23
2022-11-06T14:59:27.827Z,55.33
2022-11-06T15:01:56.996Z,55.18
2022-11-06T15:04:24.320Z,55.18
2022-11-06T15:06:51.448Z,55.34
2022-11-06T15:09:24.332Z,55.34
2022-11-06T15:11:53.538Z,55.08
2022-11-06T15:14:20.210Z,55.16
2022-11-06T15:17:05.235Z,55.26
2022-11-06T15:19:43.242Z,55.17
2022-11-06T15:22:20.554Z,54.89
2022-11-06T15:24:53.634Z,54.99
2022-11-06T15:27:22.139Z,55.18
2022-11-06T15:29:52.038Z,55.00
2022-11-06T15:32:20.977Z,54.98
2022-11-06T15:35:00.965Z,55.12
2022-11-06T15:37:31.178Z,54.76
2022-11-06T15:40:01.352Z,55.08
2022-11-06T15:42:29.506Z,55.09
2022-11-06T15:45:12.889Z,55.11
2022-11-06T15:47:39.933Z,54.99
2022-11-06T15:50:12.948Z,55.18
2022-11-06T15:52:40.499Z,55.17
2022-11-06T15:55:12.346Z,55.08
2022-11-06T15:57:39.365Z,55.03
2022-11-06T16:00:15.986Z,54.96
2022-11-06T16:02:50.487Z,55.05
2022-11-06T16:05:17.614Z,55.12
2022-11-06T16:07:47.686Z,55.13
2022-11-06T16:10:15.884Z,55.10
2022-11-06T16:12:42.886Z,55.26
2022-11-06T16:15:50.033Z,54.93
2022-11-06T16:18:24.573Z,54.85
2022-11-06T16:20:54.298Z,54.96
2022-11-06T16:23:31.608Z,54.98
2022-11-06T16:26:13.251Z,54.59
2022-11-06T16:28:44.574Z,54.92
2022-11-06T16:31:22.463Z,55.02
2022-11-06T16:34:04.134Z,55.08
2022-11-06T16:36:32.211Z,55.00
2022-11-06T16:39:48.154Z,55.27
2022-11-06T16:42:22.083Z,55.15
2022-11-06T16:45:17.436Z,55.00
2022-11-06T16:48:18.408Z,55.16
2022-11-06T16:50:49.918Z,55.04
2022-11-06T16:53:26.866Z,55.00
2022-11-06T16:55:57.850Z,55.13
2022-11-06T16:58:24.924Z,55.29
2022-11-06T17:01:02.945Z,55.02
2022-11-06T17:03:35.204Z,54.82
2022-11-06T17:06:02.283Z,54.90
2022-11-06T17:08:40.154Z,55.13
2022-11-06T17:11:13.400Z,54.91
2022-11-06T17:13:43.805Z,55.12
2022-11-06T17:16:18.397Z,55.11
2022-11-06T17:18:45.245Z,55.00
2022-11-06T17:21:13.997Z,55.03
2022-11-06T17:23:40.809Z,55.12
2022-11-06T17:26:12.765Z,55.06
2022-11-06T17:28:39.442Z,55.10
2022-11-06T17:31:06.572Z,54.86
2022-11-06T17:33:33.269Z,55.26
2022-11-06T17:36:00.269Z,55.08
2022-11-06T17:38:26.969Z,55.20
2022-11-06T17:40:53.982Z,55.08
2022-11-06T17:43:20.663Z,55.30
2022-11-06T17:45:49.992Z,55.23
2022-11-06T17:48:17.630Z,55.44
2022-11-06T17:51:03.409Z,55.53
2022-11-06T17:53:30.131Z,55.18
2022-11-06T17:55:57.148Z,55.19
2022-11-06T17:58:23.893Z,55.38
2022-11-06T18:00:50.918Z,55.23
2022-11-06T18:03:19.395Z,55.35
2022-11-06T18:05:46.913Z,55.42
2022-11-06T18:08:14.180Z,55.23
2022-11-06T18:10:41.550Z,55.32
2022-11-06T18:13:08.331Z,55.24
2022-11-06T18:15:36.112Z,55.41
2022-11-06T18:18:03.293Z,55.39
2022-11-06T18:20:30.373Z,55.55
2022-11-06T18:22:57.076Z,55.13
2022-11-06T18:25:24.104Z,55.37
2022-11-06T18:27:50.870Z,55.31
2022-11-06T18:30:17.960Z,55.43
2022-11-06T18:32:44.673Z,55.30
2022-11-06T18:35:11.689Z,55.46
2022-11-06T18:37:38.656Z,55.31
2022-11-06T18:40:06.103Z,55.36
2022-11-06T18:42:32.871Z,55.29
2022-11-06T18:44:59.895Z,55.13
2022-11-06T18:47:26.586Z,55.31
2022-11-06T18:49:53.588Z,55.24
2022-11-06T18:52:44.437Z,55.50
2022-11-06T18:55:07.824Z,55.32
2022-11-06T18:57:34.568Z,55.51
2022-11-06T19:00:01.736Z,55.23
2022-11-06T19:02:28.592Z,55.39
2022-11-06T19:04:55.797Z,55.37
2022-11-06T19:07:22.564Z,55.33
2022-11-06T19:09:49.768Z,55.50
2022-11-06T19:12:16.500Z,55.55
2022-11-06T19:14:43.519Z,55.60
2022-11-06T19:17:10.215Z,55.42
2022-11-06T19:19:37.268Z,55.33
2022-11-06T19:22:04.048Z,55.77
2022-11-06T19:24:32.840Z,55.54
2022-11-06T19:26:59.608Z,55.65
2022-11-06T19:29:26.592Z,55.51
2022-11-06T19:31:55.245Z,55.60
2022-11-06T19:34:25.604Z,55.69
2022-11-06T19:36:52.412Z,55.52
2022-11-06T19:39:19.525Z,55.57
2022-11-06T19:41:46.331Z,55.66
2022-11-06T19:44:13.447Z,55.62
2022-11-06T19:46:40.254Z,55.64
2022-11-06T19:49:08.488Z,55.66
2022-11-06T19:51:37.485Z,55.37
2022-11-06T19:54:07.807Z,55.80
2022-11-06T19:56:34.535Z,55.69
2022-11-06T19:59:02.314Z,55.89
2022-11-06T20:01:29.221Z,55.65
2022-11-06T20:03:56.306Z,55.58
2022-11-06T20:06:23.066Z,55.87
2022-11-06T20:08:50.487Z,55.90
2022-11-06T20:11:17.383Z,55.97
2022-11-06T20:13:44.949Z,55.91
2022-11-06T20:16:19.451Z,56.03
2022-11-06T20:18:53.396Z,55.68
2022-11-06T20:21:23.606Z,56.06
2022-11-06T20:23:50.729Z,56.04
2022-11-06T20:26:17.539Z,55.88
2022-11-06T20:28:46.795Z,55.96
2022-11-06T20:31:14.267Z,56.11
2022-11-06T20:33:41.275Z,56.11
2022-11-06T20:36:14.301Z,56.03
2022-11-06T20:38:41.309Z,56.18
2022-11-06T20:41:08.235Z,56.14
2022-11-06T20:43:35.285Z,56.27
2022-11-06T20:46:02.477Z,56.29
2022-11-06T20:48:30.493Z,56.44
2022-11-06T20:51:04.437Z,56.43
2022-11-06T20:53:31.564Z,56.20
2022-11-06T20:56:08.486Z,56.21
2022-11-06T20:58:38.414Z,55.97
2022-11-06T21:01:05.302Z,56.28
2022-11-06T21:03:32.433Z,56.48
2022-11-06T21:05:59.298Z,56.35
2022-11-06T21:08:27.874Z,56.34
2022-11-06T21:11:04.874Z,56.43
2022-11-06T21:13:33.446Z,56.40
2022-11-06T21:16:01.510Z,56.20
2022-11-06T21:18:28.674Z,56.31
2022-11-06T21:20:55.520Z,56.17
2022-11-06T21:23:22.640Z,56.16
2022-11-06T21:25:49.331Z,56.49
2022-11-06T21:28:16.452Z,56.61
2022-11-06T21:30:47.076Z,56.50
2022-11-06T21:33:14.585Z,56.43
2022-11-06T21:35:41.621Z,56.56
2022-11-06T21:38:08.672Z,56.55
2022-11-06T21:40:35.415Z,56.19
2022-11-06T21:43:02.576Z,56.35
2022-11-06T21:45:29.272Z,56.51
2022-11-06T21:47:56.297Z,56.38
2022-11-06T21:50:29.843Z,56.14
2022-11-06T21:53:15.381Z,56.30
2022-11-06T21:56:00.353Z,56.36
2022-11-06T21:58:27.525Z,56.30
2022-11-06T22:00:54.212Z,56.21
2022-11-06T22:03:21.179Z,56.25
2022-11-06T22:05:47.920Z,56.28
2022-11-06T22:08:15.142Z,56.55
2022-11-06T22:10:42.156Z,56.31
2022-11-06T22:13:09.176Z,56.28
2022-11-06T22:15:35.913Z,56.13
2022-11-06T22:18:03.073Z,56.37
2022-11-06T22:20:29.840Z,56.27
2022-11-06T22:22:57.216Z,56.40
2022-11-06T22:25:24.309Z,56.43
2022-11-06T22:27:51.613Z,56.43
2022-11-06T22:30:18.504Z,56.52
2022-11-06T22:32:45.530Z,56.30
2022-11-06T22:35:12.323Z,56.19
2022-11-06T22:37:39.446Z,56.19
2022-11-06T22:40:06.870Z,56.20
2022-11-06T22:42:34.330Z,56.23
2022-11-06T22:45:01.230Z,56.13
2022-11-06T22:47:28.468Z,56.18
2022-11-06T22:49:55.259Z,56.23
2022-11-06T22:52:22.287Z,56.23
2022-11-06T22:54:49.096Z,56.08
2022-11-06T22:57:16.090Z,55.92
2022-11-06T22:59:42.795Z,56.18
2022-11-06T23:02:09.944Z,55.97
2022-11-06T23:04:36.770Z,56.44
2022-11-06T23:07:03.827Z,56.23
2022-11-06T23:09:30.627Z,56.23
2022-11-06T23:11:57.374Z,56.19
2022-11-06T23:14:24.406Z,56.16
2022-11-06T23:16:57.030Z,55.98
2022-11-06T23:19:24.035Z,56.37
2022-11-06T23:21:51.158Z,56.32
2022-11-06T23:24:17.888Z,56.19
2022-11-06T23:26:44.899Z,56.18
2022-11-06T23:29:11.667Z,56.32
2022-11-06T23:31:38.731Z,56.17
2022-11-06T23:34:05.500Z,56.22
2022-11-06T23:36:32.521Z,56.28
2022-11-06T23:38:59.290Z,56.33
2022-11-06T23:41:46.082Z,56.46
2022-11-06T23:44:32.769Z,56.26
2022-11-06T23:46:59.933Z,56.25
2022-11-06T23:49:26.736Z,56.32
2022-11-06T23:51:53.760Z,56.25
2022-11-06T23:54:20.472Z,56.27
2022-11-06T23:56:47.526Z,56.33
2022-11-06T23:59:14.217Z,56.25
